Time;durP1;ratioP1;P1;durP2;ratioP2;P2;SDS_P1;SDS_P2;PMS_P1;PMS_P2;Temp;Humidity;BMP_temperature;BMP_pressure;BME280_temperature;BME280_humidity;BME280_pressure;Samples;Min_cycle;Max_cycle;Signal;HPM_P1;HPM_P2
2023/08/26 00:00:40;;;;;;;5.25;1.50;;;21.70;82.50;;;;;;7391110;19;20006;-78
2023/08/26 00:03:08;;;;;;;3.05;1.70;;;21.70;82.20;;;;;;7389794;19;20017;-78
2023/08/26 00:05:40;;;;;;;3.92;2.03;;;21.80;82.00;;;;;;7392210;19;20022;-78
2023/08/26 00:08:08;;;;;;;;;;;21.70;82.00;;;;;;7415052;19;20014;-78
2023/08/26 00:10:37;;;;;;;4.03;2.05;;;21.80;82.10;;;;;;7393473;19;19918;-78
2023/08/26 00:13:06;;;;;;;6.07;2.45;;;21.70;82.30;;;;;;7393416;19;20384;-78
2023/08/26 00:15:35;;;;;;;4.30;1.98;;;21.70;82.40;;;;;;7391347;19;20357;-78
2023/08/26 00:18:06;;;;;;;2.33;1.50;;;21.70;82.50;;;;;;7390298;19;20003;-78
2023/08/26 00:20:34;;;;;;;3.97;1.70;;;21.70;82.50;;;;;;7391918;19;20075;-78
2023/08/26 00:23:08;;;;;;;4.45;1.80;;;21.60;82.40;;;;;;7410699;19;20007;-78
2023/08/26 00:25:37;;;;;;;10.32;1.42;;;21.50;82.60;;;;;;7389357;19;20010;-79
2023/08/26 00:28:06;;;;;;;9.48;2.20;;;21.60;82.70;;;;;;7390591;19;20046;-79
2023/08/26 00:30:34;;;;;;;6.20;1.67;;;21.60;83.00;;;;;;7390249;19;20006;-78
2023/08/26 00:33:03;;;;;;;6.00;2.03;;;21.50;84.10;;;;;;7391181;19;20014;-78
2023/08/26 00:35:32;;;;;;;8.02;2.15;;;21.60;83.50;;;;;;7388447;19;20019;-78
2023/08/26 00:38:01;;;;;;;7.82;2.00;;;21.50;83.30;;;;;;7411135;19;20016;-78
2023/08/26 00:40:38;;;;;;;3.58;1.73;;;21.60;83.30;;;;;;7386546;19;20008;-78
2023/08/26 00:43:10;;;;;;;6.32;1.77;;;21.50;83.40;;;;;;7386761;19;20366;-78
2023/08/26 00:45:41;;;;;;;4.43;1.77;;;21.50;83.50;;;;;;7386731;19;20099;-78
2023/08/26 00:48:11;;;;;;;4.65;1.95;;;21.50;83.50;;;;;;7384403;19;20267;-77
2023/08/26 00:50:42;;;;;;;6.18;1.63;;;21.50;83.50;;;;;;7384764;19;20370;-78
2023/08/26 00:53:12;;;;;;;5.18;1.70;;;21.50;83.60;;;;;;7390144;19;20011;-78
2023/08/26 00:55:44;;;;;;;3.92;1.90;;;21.50;83.90;;;;;;7429891;19;20013;-78
2023/08/26 00:58:13;;;;;;;2.95;1.70;;;21.50;83.80;;;;;;7398734;19;20027;-78
2023/08/26 01:00:44;;;;;;;4.30;1.48;;;21.50;84.00;;;;;;7401474;19;20082;-79
2023/08/26 01:03:12;;;;;;;4.35;1.88;;;21.50;84.30;;;;;;7400483;19;20018;-78
2023/08/26 01:05:41;;;;;;;9.27;1.92;;;21.60;84.70;;;;;;7385701;19;20505;-78
2023/08/26 01:08:10;;;;;;;6.93;1.83;;;21.50;84.70;;;;;;7396046;19;20010;-78
2023/08/26 01:10:57;;;;;;;7.65;2.08;;;21.50;84.80;;;;;;7408854;19;20014;-77
2023/08/26 01:13:31;;;;;;;3.80;1.90;;;21.50;85.20;;;;;;7386977;19;20019;-78
2023/08/26 01:16:01;;;;;;;3.63;2.13;;;21.50;85.00;;;;;;7386506;19;20044;-78
2023/08/26 01:18:30;;;;;;;4.40;1.77;;;21.50;85.00;;;;;;7387146;19;20015;-77
2023/08/26 01:20:59;;;;;;;5.10;1.80;;;21.50;85.30;;;;;;7386781;19;20020;-77
2023/08/26 01:23:41;;;;;;;5.68;2.05;;;21.50;85.30;;;;;;7386069;19;20016;-77
2023/08/26 01:26:10;;;;;;;4.95;1.95;;;21.60;85.20;;;;;;7387848;19;20095;-77
2023/08/26 01:28:39;;;;;;;7.10;2.03;;;21.70;85.00;;;;;;7404710;19;20010;-77
2023/08/26 01:31:12;;;;;;;3.72;1.63;;;21.70;84.50;;;;;;7384279;19;20010;-78
2023/08/26 01:33:48;;;;;;;6.15;1.90;;;21.60;84.20;;;;;;7384319;19;20033;-78
2023/08/26 01:36:21;;;;;;;6.93;2.05;;;21.60;84.50;;;;;;7384495;19;20002;-79
2023/08/26 01:38:54;;;;;;;4.65;1.55;;;21.60;84.50;;;;;;7386243;19;20029;-79
2023/08/26 01:41:24;;;;;;;4.18;1.80;;;21.60;84.60;;;;;;7386365;19;20010;-78
2023/08/26 01:43:54;;;;;;;6.28;2.00;;;21.50;85.10;;;;;;7410714;19;20014;-78
2023/08/26 01:46:36;;;;;;;4.18;1.70;;;21.50;85.40;;;;;;7388194;19;20015;-79
2023/08/26 01:49:05;;;;;;;3.83;1.67;;;21.50;85.50;;;;;;7387037;19;20075;-79
2023/08/26 01:51:35;;;;;;;5.18;1.63;;;21.40;85.40;;;;;;7387752;19;20011;-79
2023/08/26 01:54:07;;;;;;;2.78;1.60;;;21.40;85.00;;;;;;7387796;19;20014;-79
2023/08/26 01:56:36;;;;;;;4.03;1.73;;;21.20;84.70;;;;;;7387010;19;20010;-79
2023/08/26 01:59:06;;;;;;;5.78;1.50;;;21.20;84.80;;;;;;7409235;19;20033;-80
2023/08/26 02:01:35;;;;;;;2.55;1.52;;;21.00;84.60;;;;;;7385713;19;19999;-79
2023/08/26 02:04:04;;;;;;;5.47;1.50;;;21.00;84.60;;;;;;7386435;19;20002;-79
2023/08/26 02:06:32;;;;;;;6.25;1.75;;;20.90;84.60;;;;;;7390600;19;20010;-77
2023/08/26 02:09:01;;;;;;;21.02;1.65;;;20.90;84.60;;;;;;7389225;19;20007;-78
2023/08/26 02:11:32;;;;;;;2.33;1.50;;;20.90;84.50;;;;;;7388432;19;20007;-78
2023/08/26 02:14:01;;;;;;;;;;;20.80;84.10;;;;;;7403286;19;20019;-78
2023/08/26 02:16:30;;;;;;;4.07;1.33;;;20.80;84.00;;;;;;7383083;19;19915;-78
2023/08/26 02:18:59;;;;;;;5.43;1.50;;;20.80;83.70;;;;;;7384641;19;20028;-78
2023/08/26 02:21:27;;;;;;;4.80;1.50;;;20.80;83.40;;;;;;7383791;19;20011;-78
2023/08/26 02:23:56;;;;;;;3.55;1.33;;;20.80;83.30;;;;;;7381016;19;20251;-77
2023/08/26 02:26:25;;;;;;;5.00;1.70;;;20.70;83.10;;;;;;7384523;19;20070;-78
2023/08/26 02:28:56;;;;;;;5.15;1.90;;;20.70;82.60;;;;;;7404078;19;20011;-77
2023/08/26 02:31:25;;;;;;;;;;;20.60;82.70;;;;;;7384297;19;20010;-78
2023/08/26 02:33:53;;;;;;;1.85;1.23;;;20.60;83.00;;;;;;7382758;19;19940;-77
2023/08/26 02:36:22;;;;;;;2.33;1.38;;;20.50;83.00;;;;;;7384867;19;20075;-78
2023/08/26 02:38:51;;;;;;;7.70;1.80;;;20.50;83.10;;;;;;7386109;19;20381;-77
2023/08/26 02:41:20;;;;;;;4.88;1.65;;;20.50;83.00;;;;;;7381531;19;20038;-78
2023/08/26 02:43:48;;;;;;;3.22;1.50;;;20.40;82.80;;;;;;7405131;19;20296;-78
2023/08/26 02:46:19;;;;;;;7.68;1.63;;;20.40;82.90;;;;;;7383471;19;19999;-78
2023/08/26 02:48:50;;;;;;;6.00;1.38;;;20.30;82.70;;;;;;7393312;19;20003;-78
2023/08/26 02:51:19;;;;;;;5.33;1.60;;;20.30;82.80;;;;;;7404161;19;20030;-78
2023/08/26 02:53:47;;;;;;;3.97;1.58;;;20.30;82.70;;;;;;7397541;19;20240;-78
2023/08/26 02:56:16;;;;;;;1.38;1.25;;;20.30;82.70;;;;;;7403075;19;20014;-78
2023/08/26 02:58:45;;;;;;;4.63;1.52;;;20.30;82.60;;;;;;7415404;19;20007;-78
2023/08/26 03:01:16;;;;;;;7.85;2.00;;;20.40;82.70;;;;;;7395099;19;20010;-78
2023/08/26 03:03:47;;;;;;;3.45;1.55;;;20.30;82.60;;;;;;7393564;19;20387;-78
2023/08/26 03:06:16;;;;;;;;;;;20.30;82.50;;;;;;7394109;19;20015;-79
2023/08/26 03:08:45;;;;;;;3.95;1.40;;;20.20;82.60;;;;;;7392084;19;19935;-78
2023/08/26 03:11:14;;;;;;;7.13;1.63;;;20.20;82.80;;;;;;7389493;19;20002;-78
2023/08/26 03:13:42;;;;;;;1.45;1.25;;;20.10;82.70;;;;;;7412894;19;20014;-77
2023/08/26 03:16:12;;;;;;;5.05;1.60;;;20.10;82.60;;;;;;7391155;19;20378;-78
2023/08/26 03:18:42;;;;;;;9.73;1.60;;;20.10;82.70;;;;;;7391918;19;20056;-78
2023/08/26 03:21:14;;;;;;;5.93;1.70;;;20.00;83.00;;;;;;7393987;19;19999;-79
2023/08/26 03:23:43;;;;;;;3.47;1.40;;;20.00;83.10;;;;;;7392287;19;20011;-78
2023/08/26 03:26:11;;;;;;;2.00;1.50;;;20.00;83.00;;;;;;7394044;19;20281;-78
2023/08/26 03:28:40;;;;;;;6.65;1.40;;;20.00;83.20;;;;;;7411987;19;20377;-78
2023/08/26 03:31:09;;;;;;;6.07;2.15;;;20.00;83.20;;;;;;7393908;19;20018;-78
2023/08/26 03:33:38;;;;;;;5.28;1.70;;;20.00;83.20;;;;;;7395529;19;20257;-79
2023/08/26 03:36:08;;;;;;;3.58;1.67;;;20.00;83.10;;;;;;7393878;19;20010;-79
2023/08/26 03:38:39;;;;;;;2.97;1.50;;;20.00;83.90;;;;;;7397407;19;20017;-79
2023/08/26 03:41:08;;;;;;;;;;;20.00;83.20;;;;;;7416640;19;20015;-79
2023/08/26 03:43:36;;;;;;;8.18;1.63;;;20.00;83.40;;;;;;7398936;19;19911;-78
2023/08/26 03:46:06;;;;;;;2.97;1.50;;;20.00;83.20;;;;;;7391419;19;20010;-78
2023/08/26 03:48:34;;;;;;;4.63;1.60;;;20.00;83.20;;;;;;7392004;19;20015;-78
2023/08/26 03:51:03;;;;;;;4.22;1.80;;;20.00;83.10;;;;;;7391373;19;20006;-78
2023/08/26 03:53:32;;;;;;;3.25;1.70;;;20.00;83.20;;;;;;7389400;19;20007;-78
2023/08/26 03:56:03;;;;;;;6.95;1.60;;;19.90;83.30;;;;;;7410836;19;20003;-79
2023/08/26 03:58:32;;;;;;;4.85;1.60;;;19.90;83.50;;;;;;7392479;19;20066;-78
2023/08/26 04:01:04;;;;;;;7.65;1.90;;;19.90;83.40;;;;;;7388868;19;20070;-78
2023/08/26 04:03:33;;;;;;;8.50;1.83;;;19.80;83.80;;;;;;7388489;19;20007;-77
2023/08/26 04:06:03;;;;;;;6.28;1.92;;;19.80;83.90;;;;;;7388617;19;20158;-79
2023/08/26 04:08:32;;;;;;;3.78;1.75;;;19.80;84.30;;;;;;7389004;19;20131;-79
2023/08/26 04:11:04;;;;;;;4.63;1.70;;;19.80;84.40;;;;;;7408196;19;20031;-77
2023/08/26 04:13:32;;;;;;;;;;;19.80;84.20;;;;;;7387915;19;20027;-79
2023/08/26 04:16:02;;;;;;;2.80;1.48;;;19.90;84.20;;;;;;7386675;19;19914;-77
2023/08/26 04:18:31;;;;;;;3.00;1.95;;;19.90;84.20;;;;;;7387036;19;20409;-79
2023/08/26 04:21:00;;;;;;;9.13;2.17;;;19.90;84.40;;;;;;7387354;19;20025;-78
2023/08/26 04:23:29;;;;;;;5.60;1.90;;;19.80;84.40;;;;;;7388075;19;20019;-78
2023/08/26 04:26:03;;;;;;;2.83;1.65;;;19.80;84.80;;;;;;7408542;19;20011;-78
2023/08/26 04:28:32;;;;;;;3.40;2.00;;;19.80;85.10;;;;;;7385736;19;20023;-77
2023/08/26 04:31:01;;;;;;;10.52;1.98;;;19.80;85.00;;;;;;7386761;19;20003;-78
2023/08/26 04:33:30;;;;;;;5.03;1.83;;;19.80;84.70;;;;;;7387981;19;20353;-79
2023/08/26 04:35:59;;;;;;;7.13;2.00;;;19.70;84.50;;;;;;7386119;19;20400;-78
2023/08/26 04:38:28;;;;;;;3.67;2.00;;;19.70;84.70;;;;;;7390956;19;20007;-78
2023/08/26 04:40:57;;;;;;;3.60;1.75;;;19.70;84.80;;;;;;7421511;19;19999;-79
2023/08/26 04:43:29;;;;;;;4.45;1.90;;;19.70;85.00;;;;;;7407541;19;20374;-78
2023/08/26 04:45:58;;;;;;;;;;;19.70;85.10;;;;;;7408779;19;20006;-78
2023/08/26 04:48:28;;;;;;;5.50;1.58;;;19.70;85.20;;;;;;7408840;19;19918;-79
2023/08/26 04:50:57;;;;;;;4.50;1.70;;;19.70;85.20;;;;;;7398513;19;20027;-78
2023/08/26 04:53:26;;;;;;;4.68;1.60;;;19.70;85.40;;;;;;7390306;19;20068;-78
2023/08/26 04:55:54;;;;;;;6.68;2.17;;;19.70;85.70;;;;;;7410353;19;20071;-79
2023/08/26 04:58:23;;;;;;;4.00;1.92;;;19.70;85.60;;;;;;7387363;19;20003;-78
2023/08/26 05:00:55;;;;;;;6.78;2.13;;;19.70;85.40;;;;;;7390562;19;20011;-78
2023/08/26 05:03:24;;;;;;;3.63;1.60;;;19.70;85.10;;;;;;7390268;19;20023;-78
2023/08/26 05:05:52;;;;;;;2.63;1.70;;;19.70;85.10;;;;;;7387397;19;20011;-78
2023/08/26 05:08:21;;;;;;;10.32;1.70;;;19.70;85.40;;;;;;7389488;19;20014;-78
2023/08/26 05:10:50;;;;;;;9.23;1.80;;;19.70;85.40;;;;;;7406569;19;20010;-79
2023/08/26 05:13:18;;;;;;;4.40;1.95;;;19.50;85.50;;;;;;7383818;19;20326;-79
2023/08/26 05:15:47;;;;;;;6.07;1.70;;;19.60;85.60;;;;;;7385559;19;20515;-80
2023/08/26 05:18:19;;;;;;;5.28;1.58;;;19.50;85.80;;;;;;7384733;19;20006;-79
2023/08/26 05:20:48;;;;;;;6.22;2.25;;;19.40;86.20;;;;;;7386226;19;20015;-79
2023/08/26 05:23:17;;;;;;;6.97;1.77;;;19.40;86.40;;;;;;7385501;19;20412;-78
2023/08/26 05:25:47;;;;;;;7.72;1.65;;;19.40;86.30;;;;;;7405190;19;20010;-78
2023/08/26 05:28:17;;;;;;;6.75;1.48;;;19.50;86.30;;;;;;7384896;19;20011;-79
2023/08/26 05:30:46;;;;;;;5.63;1.95;;;19.50;86.50;;;;;;7385345;19;20073;-80
2023/08/26 05:33:17;;;;;;;2.40;1.67;;;19.50;86.30;;;;;;7386720;19;20007;-78
2023/08/26 05:35:46;;;;;;;2.60;1.58;;;19.60;86.30;;;;;;7385272;19;20031;-78
2023/08/26 05:38:15;;;;;;;4.00;1.60;;;19.60;86.10;;;;;;7386422;19;20007;-78
2023/08/26 05:40:43;;;;;;;4.63;1.77;;;19.70;86.10;;;;;;7407575;19;20014;-79
2023/08/26 05:43:12;;;;;;;4.45;1.85;;;19.70;86.10;;;;;;7387851;19;20220;-79
2023/08/26 05:45:42;;;;;;;3.42;1.52;;;19.70;86.10;;;;;;7384577;19;20019;-78
2023/08/26 05:48:10;;;;;;;6.13;1.77;;;19.80;86.20;;;;;;7385480;19;20022;-79
2023/08/26 05:50:41;;;;;;;5.63;1.55;;;19.80;86.00;;;;;;7388466;19;20003;-78
2023/08/26 05:53:10;;;;;;;4.93;1.70;;;19.90;86.00;;;;;;7390781;19;20006;-77
2023/08/26 05:55:39;;;;;;;4.85;2.03;;;19.90;86.00;;;;;;7406578;19;20358;-78
2023/08/26 05:58:07;;;;;;;4.28;1.55;;;19.90;86.00;;;;;;7384471;19;20272;-79
2023/08/26 06:00:36;;;;;;;11.85;4.10;;;20.00;85.80;;;;;;7384182;19;20006;-78
2023/08/26 06:03:05;;;;;;;10.13;2.70;;;20.00;85.70;;;;;;7385724;19;20027;-79
2023/08/26 06:05:34;;;;;;;4.35;1.42;;;20.00;85.90;;;;;;7386979;19;20232;-79
2023/08/26 06:08:06;;;;;;;4.25;1.75;;;19.90;85.70;;;;;;7408580;19;20006;-80
2023/08/26 06:10:35;;;;;;;6.25;2.00;;;19.90;85.80;;;;;;7384216;19;20024;-79
2023/08/26 06:13:04;;;;;;;4.25;1.67;;;20.00;86.00;;;;;;7385014;19;20003;-79
2023/08/26 06:15:33;;;;;;;3.85;1.58;;;20.00;86.00;;;;;;7387821;19;20476;-78
2023/08/26 06:18:03;;;;;;;2.42;1.50;;;19.90;85.80;;;;;;7387608;19;20128;-79
2023/08/26 06:20:32;;;;;;;6.00;1.50;;;19.90;86.00;;;;;;7386257;19;20029;-78
2023/08/26 06:23:02;;;;;;;4.00;1.70;;;19.90;85.90;;;;;;7407734;19;20031;-78
2023/08/26 06:25:33;;;;;;;3.40;1.60;;;19.70;86.00;;;;;;7388828;19;20003;-79
2023/08/26 06:28:02;;;;;;;2.88;1.40;;;19.80;86.30;;;;;;7392129;19;20011;-80
2023/08/26 06:30:31;;;;;;;4.03;1.40;;;19.70;86.60;;;;;;7389155;19;20011;-79
2023/08/26 06:32:59;;;;;;;5.78;1.70;;;19.70;86.90;;;;;;7390423;19;20014;-77
2023/08/26 06:35:28;;;;;;;3.58;1.35;;;19.70;86.70;;;;;;7401558;19;20002;-78
2023/08/26 06:37:57;;;;;;;4.32;1.50;;;19.60;87.00;;;;;;7424287;19;20010;-78
2023/08/26 06:40:26;;;;;;;5.32;1.88;;;19.50;87.30;;;;;;7402423;19;20014;-78
2023/08/26 06:42:57;;;;;;;5.85;1.33;;;19.50;87.60;;;;;;7399531;19;20102;-79
2023/08/26 06:45:26;;;;;;;4.20;1.58;;;19.60;87.70;;;;;;7383940;19;20429;-78
2023/08/26 06:47:54;;;;;;;3.42;1.38;;;19.50;87.50;;;;;;7382627;19;20416;-79
2023/08/26 06:50:23;;;;;;;4.57;1.20;;;19.60;87.60;;;;;;7381218;19;20012;-79
2023/08/26 06:52:52;;;;;;;3.95;1.60;;;19.60;87.70;;;;;;7402189;19;20341;-78
2023/08/26 06:55:21;;;;;;;3.55;1.70;;;19.60;87.90;;;;;;7382487;19;20007;-79
2023/08/26 06:57:50;;;;;;;6.22;1.60;;;19.60;88.10;;;;;;7384390;19;20023;-79
2023/08/26 07:00:22;;;;;;;3.10;1.50;;;19.60;88.00;;;;;;7382792;19;20031;-78
2023/08/26 07:02:51;;;;;;;10.10;1.45;;;19.60;88.20;;;;;;7383542;19;20362;-79
2023/08/26 07:05:19;;;;;;;8.82;1.73;;;19.70;88.20;;;;;;7383226;19;20007;-78
2023/08/26 07:07:48;;;;;;;3.20;1.65;;;19.70;87.70;;;;;;7406788;19;20010;-79
2023/08/26 07:10:17;;;;;;;9.95;2.17;;;19.80;87.90;;;;;;7384101;19;20006;-80
2023/08/26 07:12:46;;;;;;;4.28;1.38;;;19.90;87.90;;;;;;7384331;19;20255;-79
2023/08/26 07:15:14;;;;;;;9.48;1.88;;;19.90;87.60;;;;;;7383882;19;20413;-79
2023/08/26 07:17:46;;;;;;;11.93;1.20;;;20.00;87.50;;;;;;7384884;19;20007;-78
2023/08/26 07:20:14;;;;;;;1.65;1.38;;;20.00;87.60;;;;;;7383949;19;20007;-79
2023/08/26 07:22:43;;;;;;;8.35;1.98;;;20.10;87.60;;;;;;7405934;19;20074;-78
2023/08/26 07:25:12;;;;;;;7.75;1.40;;;20.20;87.50;;;;;;7387028;19;20019;-78
2023/08/26 07:27:41;;;;;;;6.30;1.42;;;20.20;87.50;;;;;;7384852;19;20006;-77
2023/08/26 07:30:11;;;;;;;4.90;1.40;;;20.20;87.50;;;;;;7380761;19;20279;-79
2023/08/26 07:32:39;;;;;;;3.92;1.52;;;20.40;87.60;;;;;;7381835;19;20074;-78
2023/08/26 07:35:12;;;;;;;2.08;1.20;;;20.40;87.40;;;;;;7405595;19;20032;-78
2023/08/26 07:37:41;;;;;;;7.60;1.40;;;20.50;87.40;;;;;;7391043;19;20002;-79
2023/08/26 07:40:15;;;;;;;6.85;1.70;;;20.60;87.10;;;;;;7388316;19;20011;-79
2023/08/26 07:42:45;;;;;;;5.43;1.35;;;20.40;86.70;;;;;;7390839;19;20503;-78
2023/08/26 07:45:14;;;;;;;3.17;1.00;;;20.30;87.30;;;;;;7388691;19;20011;-79
2023/08/26 07:47:44;;;;;;;4.80;1.60;;;20.30;87.70;;;;;;7388633;19;20054;-78
2023/08/26 07:50:15;;;;;;;7.20;1.50;;;20.40;87.40;;;;;;7388489;19;20010;-79
2023/08/26 07:52:44;;;;;;;7.20;1.48;;;20.40;87.80;;;;;;7409166;19;20033;-78
2023/08/26 07:55:13;;;;;;;8.23;1.50;;;20.40;87.80;;;;;;7390243;19;20007;-79
2023/08/26 07:57:43;;;;;;;3.70;1.50;;;20.30;87.20;;;;;;7390362;19;20365;-78
2023/08/26 08:00:14;;;;;;;5.80;1.30;;;20.30;87.90;;;;;;7386372;19;20014;-78
2023/08/26 08:02:42;;;;;;;7.65;1.35;;;20.10;87.90;;;;;;7391822;19;20010;-79
2023/08/26 08:05:11;;;;;;;3.00;1.30;;;20.10;88.80;;;;;;7390151;19;20014;-78
2023/08/26 08:07:43;;;;;;;6.65;1.20;;;20.30;88.40;;;;;;7411912;19;20006;-78
2023/08/26 08:10:11;;;;;;;;;;;20.10;88.80;;;;;;7391025;19;20010;-79
2023/08/26 08:12:40;;;;;;;5.55;1.52;;;20.10;88.60;;;;;;7391405;19;20214;-79
2023/08/26 08:15:11;;;;;;;7.00;1.48;;;20.10;88.30;;;;;;7392886;19;20002;-78
2023/08/26 08:17:40;;;;;;;4.00;1.50;;;20.00;89.00;;;;;;7392150;19;20022;-79
2023/08/26 08:20:11;;;;;;;7.63;1.70;;;20.10;88.70;;;;;;7413939;19;20063;-79
2023/08/26 08:22:44;;;;;;;4.20;1.50;;;20.30;88.40;;;;;;7394549;19;20007;-78
2023/08/26 08:25:13;;;;;;;4.47;1.38;;;20.30;88.30;;;;;;7388101;19;20006;-78
2023/08/26 08:27:44;;;;;;;7.93;1.50;;;20.30;88.70;;;;;;7392055;19;20006;-79
2023/08/26 08:30:16;;;;;;;4.93;1.35;;;20.40;88.50;;;;;;7406235;19;20010;-81
2023/08/26 08:32:47;;;;;;;4.07;1.30;;;20.40;88.10;;;;;;7405373;19;20007;-78
2023/08/26 08:35:15;;;;;;;6.17;1.43;;;20.50;88.20;;;;;;7403440;19;20014;-78
2023/08/26 08:37:47;;;;;;;5.22;1.55;;;20.50;87.70;;;;;;7423382;19;20283;-78
2023/08/26 08:40:15;;;;;;;;;;;20.30;87.90;;;;;;7389776;19;20014;-77
2023/08/26 08:42:44;;;;;;;2.60;1.25;;;20.60;87.90;;;;;;7389398;19;19911;-79
2023/08/26 08:45:14;;;;;;;4.07;1.48;;;20.60;87.20;;;;;;7389082;19;20007;-79
2023/08/26 08:47:43;;;;;;;5.20;1.30;;;20.30;87.10;;;;;;7386337;19;20078;-78
2023/08/26 08:50:12;;;;;;;3.40;1.27;;;20.50;87.40;;;;;;7386560;19;20007;-78
2023/08/26 08:52:44;;;;;;;3.78;1.33;;;20.60;86.90;;;;;;7405543;19;20024;-78
2023/08/26 08:55:16;;;;;;;6.18;1.42;;;20.80;86.40;;;;;;7385509;19;20006;-78
2023/08/26 08:57:47;;;;;;;6.93;1.63;;;21.00;85.70;;;;;;7388999;19;20022;-78
2023/08/26 09:00:16;;;;;;;3.13;1.27;;;21.20;85.70;;;;;;7386511;19;20011;-79
2023/08/26 09:02:46;;;;;;;3.28;1.40;;;21.20;85.00;;;;;;7390096;19;20247;-79
2023/08/26 09:05:16;;;;;;;4.35;1.30;;;21.20;84.30;;;;;;7389938;19;20272;-78
2023/08/26 09:07:44;;;;;;;1.38;1.10;;;21.20;84.70;;;;;;7409666;19;20007;-79
2023/08/26 09:10:16;;;;;;;4.38;1.63;;;21.40;85.00;;;;;;7389090;19;20007;-77
2023/08/26 09:12:45;;;;;;;5.10;1.27;;;21.40;85.00;;;;;;7388030;19;20003;-80
2023/08/26 09:15:14;;;;;;;4.40;1.20;;;21.40;84.20;;;;;;7388484;19;20011;-79
2023/08/26 09:17:47;;;;;;;3.28;1.13;;;21.50;83.80;;;;;;7388405;19;20031;-78
2023/08/26 09:20:16;;;;;;;5.20;1.00;;;21.50;82.90;;;;;;7390203;19;20019;-80
2023/08/26 09:22:44;;;;;;;3.78;1.10;;;21.50;83.20;;;;;;7410940;19;20042;-79
2023/08/26 09:25:17;;;;;;;3.83;1.15;;;21.30;82.90;;;;;;7390243;19;20010;-80
2023/08/26 09:27:47;;;;;;;2.92;1.10;;;21.40;83.50;;;;;;7390905;19;20007;-79
2023/08/26 09:30:22;;;;;;;5.60;1.40;;;21.40;83.50;;;;;;7389227;19;20271;-80
2023/08/26 09:32:53;;;;;;;3.65;1.30;;;21.50;83.50;;;;;;7390191;19;20006;-81
2023/08/26 09:35:24;;;;;;;4.78;1.40;;;21.40;84.80;;;;;;7393827;19;20015;-80
2023/08/26 09:37:59;;;;;;;2.53;1.00;;;21.60;83.30;;;;;;7414932;19;20019;-80
2023/08/26 09:40:33;;;;;;;5.47;1.10;;;21.40;82.70;;;;;;7389293;19;20010;-83
2023/08/26 09:43:06;;;;;;;1.67;1.20;;;21.40;82.70;;;;;;7391275;19;20034;-80
2023/08/26 09:45:40;;;;;;;6.53;0.90;;;21.40;82.90;;;;;;7389932;19;20484;-81
2023/08/26 09:48:09;;;;;;;2.83;1.00;;;21.10;82.80;;;;;;7389990;19;20019;-79
2023/08/26 09:50:38;;;;;;;3.15;0.80;;;21.30;83.50;;;;;;7388056;19;20002;-82
2023/08/26 09:53:33;;;;;;;3.17;1.40;;;21.40;83.50;;;;;;7409972;19;20007;-81
2023/08/26 09:56:05;;;;;;;2.60;1.05;;;21.70;83.50;;;;;;7383516;19;20236;-78
2023/08/26 09:58:33;;;;;;;9.15;1.25;;;21.70;82.70;;;;;;7378632;19;20006;-77
2023/08/26 10:01:05;;;;;;;3.33;1.00;;;21.70;82.90;;;;;;7381856;19;20014;-78
2023/08/26 10:03:37;;;;;;;2.47;1.33;;;21.70;82.60;;;;;;7383389;19;20007;-77
2023/08/26 10:06:09;;;;;;;8.00;1.20;;;21.80;82.90;;;;;;7383823;19;20006;-77
2023/08/26 10:08:41;;;;;;;2.42;0.98;;;21.70;82.50;;;;;;7382850;19;20020;-78
2023/08/26 10:11:15;;;;;;;3.35;1.08;;;21.70;81.00;;;;;;7392078;19;20011;-77
2023/08/26 10:13:47;;;;;;;4.43;1.13;;;21.70;80.10;;;;;;7403000;19;20003;-77
2023/08/26 10:16:19;;;;;;;3.58;0.98;;;21.80;80.70;;;;;;7381332;19;20007;-77
2023/08/26 10:18:51;;;;;;;1.15;0.80;;;21.90;79.50;;;;;;7382190;19;20019;-78
2023/08/26 10:21:20;;;;;;;2.30;0.90;;;22.00;80.30;;;;;;7382468;19;20087;-78
2023/08/26 10:23:50;;;;;;;0.95;0.80;;;22.10;79.70;;;;;;7384155;19;20011;-78
2023/08/26 10:26:22;;;;;;;2.10;0.85;;;22.00;78.40;;;;;;7383922;19;20070;-77
2023/08/26 10:28:52;;;;;;;0.80;0.73;;;22.10;78.40;;;;;;7403642;19;20009;-77
2023/08/26 10:31:20;;;;;;;1.67;0.85;;;22.20;78.30;;;;;;7384882;19;20006;-77
2023/08/26 10:34:03;;;;;;;2.50;0.80;;;22.20;76.50;;;;;;7381647;19;20023;-77
2023/08/26 10:36:32;;;;;;;3.30;1.05;;;21.80;77.00;;;;;;7381695;19;20030;-76
2023/08/26 10:38:59;;;;;;;1.77;0.88;;;22.00;77.30;;;;;;7378419;19;20002;-77
2023/08/26 10:41:30;;;;;;;2.47;0.88;;;21.90;78.50;;;;;;7381248;19;20439;-78
2023/08/26 10:44:01;;;;;;;1.63;0.80;;;22.00;78.00;;;;;;7403665;19;20007;-77
2023/08/26 10:46:37;;;;;;;3.70;1.13;;;22.10;78.30;;;;;;7383155;19;20010;-78
2023/08/26 10:49:06;;;;;;;2.70;0.80;;;22.30;78.60;;;;;;7384350;19;20060;-78
2023/08/26 10:51:38;;;;;;;1.23;0.98;;;22.40;77.70;;;;;;7382533;19;20010;-77
2023/08/26 10:54:07;;;;;;;2.08;1.30;;;22.40;76.50;;;;;;7381526;19;20010;-77
2023/08/26 10:56:39;;;;;;;2.83;1.40;;;22.50;76.40;;;;;;7383064;19;20010;-77
2023/08/26 10:59:09;;;;;;;3.60;1.20;;;22.50;76.30;;;;;;7402571;19;20038;-77
2023/08/26 11:01:38;;;;;;;4.05;1.08;;;22.50;76.50;;;;;;7383070;19;20358;-78
2023/08/26 11:04:08;;;;;;;2.15;0.80;;;22.60;76.50;;;;;;7390225;19;20002;-77
2023/08/26 11:06:41;;;;;;;0.90;0.70;;;22.50;76.90;;;;;;7383038;19;20093;-77
2023/08/26 11:09:11;;;;;;;1.00;0.70;;;22.50;76.90;;;;;;7382978;19;20022;-77
2023/08/26 11:11:42;;;;;;;4.55;1.15;;;22.40;76.20;;;;;;7388842;19;20006;-77
2023/08/26 11:14:10;;;;;;;;;;;22.60;76.50;;;;;;7395277;19;20018;-78
2023/08/26 11:16:40;;;;;;;5.35;1.08;;;22.50;76.90;;;;;;7412035;19;19966;-78
2023/08/26 11:19:09;;;;;;;2.58;1.20;;;22.40;78.00;;;;;;7391025;19;20031;-78
2023/08/26 11:21:39;;;;;;;3.47;1.13;;;22.30;80.20;;;;;;7388287;19;20003;-78
2023/08/26 11:24:08;;;;;;;4.82;1.23;;;22.30;81.90;;;;;;7387831;19;20011;-77
2023/08/26 11:26:37;;;;;;;1.65;1.10;;;22.10;82.20;;;;;;7387814;19;20011;-77
2023/08/26 11:29:10;;;;;;;6.85;1.30;;;22.10;83.60;;;;;;7413428;19;20019;-78
2023/08/26 11:31:40;;;;;;;3.83;1.35;;;22.00;82.30;;;;;;7389041;19;20030;-78
2023/08/26 11:34:09;;;;;;;3.50;1.10;;;21.80;82.30;;;;;;7386384;19;20010;-77
2023/08/26 11:36:37;;;;;;;1.27;0.90;;;21.70;82.70;;;;;;7388574;19;20024;-78
2023/08/26 11:39:09;;;;;;;5.60;1.23;;;21.80;83.90;;;;;;7389537;19;20041;-78
2023/08/26 11:41:37;;;;;;;;;;;21.90;84.00;;;;;;7388680;19;20014;-77
2023/08/26 11:44:16;;;;;;;3.55;1.40;;;22.00;83.20;;;;;;7408434;19;19916;-77
2023/08/26 11:46:45;;;;;;;2.05;0.82;;;22.10;82.70;;;;;;7387137;19;20070;-77
2023/08/26 11:49:14;;;;;;;4.40;1.00;;;22.30;81.20;;;;;;7388428;19;20011;-78
2023/08/26 11:51:43;;;;;;;4.47;1.10;;;22.50;80.30;;;;;;7388636;19;20010;-78
2023/08/26 11:54:24;;;;;;;1.35;1.10;;;22.60;78.90;;;;;;7387555;19;20033;-77
2023/08/26 11:56:53;;;;;;;;;;;22.70;79.20;;;;;;7389793;19;20023;-78
2023/08/26 11:59:25;;;;;;;4.03;0.90;;;22.80;77.80;;;;;;7388228;19;19906;-78
2023/08/26 12:01:53;;;;;;;4.40;0.80;;;22.90;77.00;;;;;;7409732;19;20236;-78
2023/08/26 12:04:23;;;;;;;2.30;0.70;;;23.00;76.70;;;;;;7387818;19;20007;-77
2023/08/26 12:06:52;;;;;;;2.17;0.70;;;23.10;74.40;;;;;;7388294;19;20015;-78
2023/08/26 12:09:20;;;;;;;1.70;0.73;;;23.10;72.10;;;;;;7387772;19;20002;-77
2023/08/26 12:11:49;;;;;;;2.80;0.73;;;23.10;71.40;;;;;;7387214;19;20011;-77
2023/08/26 12:14:24;;;;;;;1.63;0.75;;;23.00;72.10;;;;;;7383401;19;20023;-78
2023/08/26 12:17:04;;;;;;;4.50;0.75;;;23.00;72.50;;;;;;7407727;19;20010;-77
2023/08/26 12:19:34;;;;;;;3.67;0.90;;;22.90;71.50;;;;;;7386282;19;20016;-78
2023/08/26 12:22:03;;;;;;;3.33;0.90;;;22.90;73.00;;;;;;7388404;19;20009;-77
2023/08/26 12:24:34;;;;;;;1.85;1.02;;;23.00;72.20;;;;;;7401264;19;20030;-77
2023/08/26 12:27:09;;;;;;;4.28;0.95;;;22.90;72.90;;;;;;7403963;19;20007;-78
2023/08/26 12:29:41;;;;;;;2.47;0.70;;;23.10;72.00;;;;;;7402219;19;20030;-78
2023/08/26 12:32:12;;;;;;;2.40;0.90;;;23.30;72.60;;;;;;7407384;19;20006;-77
2023/08/26 12:34:41;;;;;;;3.83;0.80;;;23.40;71.30;;;;;;7407901;19;20038;-78
2023/08/26 12:37:09;;;;;;;4.15;1.00;;;23.60;70.30;;;;;;7387966;19;20270;-77
2023/08/26 12:39:38;;;;;;;2.55;0.73;;;23.60;68.00;;;;;;7387513;19;20025;-77
2023/08/26 12:42:07;;;;;;;3.53;0.95;;;23.60;67.80;;;;;;7386006;19;20021;-77
2023/08/26 12:44:36;;;;;;;1.45;0.73;;;23.60;68.10;;;;;;7382435;19;20002;-77
2023/08/26 12:47:08;;;;;;;7.35;1.00;;;23.50;68.50;;;;;;7404635;19;20019;-77
2023/08/26 12:49:36;;;;;;;2.88;0.90;;;23.60;70.00;;;;;;7385530;19;20026;-78
2023/08/26 12:52:05;;;;;;;3.40;0.90;;;23.80;69.00;;;;;;7383312;19;20010;-77
2023/08/26 12:54:34;;;;;;;6.13;0.90;;;23.90;68.60;;;;;;7384353;19;20035;-77
2023/08/26 12:57:03;;;;;;;2.80;0.88;;;24.00;68.30;;;;;;7384636;19;20051;-77
2023/08/26 12:59:31;;;;;;;2.60;0.75;;;24.10;68.10;;;;;;7385476;19;20018;-77
2023/08/26 13:02:00;;;;;;;3.75;1.08;;;24.20;67.40;;;;;;7407266;19;20964;-77
2023/08/26 13:04:31;;;;;;;4.32;0.73;;;24.30;66.20;;;;;;7385129;19;20410;-77